Time;durP1;ratioP1;P1;durP2;ratioP2;P2;SDS_P1;SDS_P2;PMS_P1;PMS_P2;Temp;Humidity;BMP_temperature;BMP_pressure;BME280_temperature;BME280_humidity;BME280_pressure;Samples;Min_cycle;Max_cycle;Signal;HPM_P1;HPM_P2
2022/04/19 00:00:30;;;;;;;;;;;;;;;19.56;36.29;100745.63;5076093;28;19920;-76
2022/04/19 00:02:57;;;;;;;;;;;;;;;19.55;35.99;100743.94;5075514;28;20252;-76
2022/04/19 00:05:24;;;;;;;;;;;;;;;19.55;36.28;100738.56;5074180;28;19931;-76
2022/04/19 00:07:51;;;;;;;;;;;;;;;19.54;36.18;100739.56;5074388;28;19927;-76
2022/04/19 00:10:18;;;;;;;;;;;;;;;19.55;36.35;100745.78;5073164;28;19936;-76
2022/04/19 00:12:47;;;;;;;;;;;;;;;19.55;36.22;100738.56;5074265;28;19924;-76
2022/04/19 00:15:15;;;;;;;;;;;;;;;19.55;36.38;100735.03;5074184;28;19973;-75
2022/04/19 00:17:42;;;;;;;;;;;;;;;19.54;36.35;100736.88;5072635;28;19920;-75
2022/04/19 00:20:10;;;;;;;;;;;;;;;19.54;36.30;100739.56;5073480;28;20287;-75
2022/04/19 00:22:38;;;;;;;;;;;;;;;19.53;36.31;100727.13;5073389;28;19920;-75
2022/04/19 00:25:06;;;;;;;;;;;;;;;19.52;36.31;100730.78;5074017;28;19928;-74
2022/04/19 00:27:34;;;;;;;;;;;;;;;19.52;36.34;100726.25;5074117;28;19928;-75
2022/04/19 00:30:01;;;;;;;;;;;;;;;19.52;36.20;100730.78;5073098;28;19920;-75
2022/04/19 00:32:29;;;;;;;;;;;;;;;19.52;36.31;100728.94;5073116;28;19920;-75
2022/04/19 00:34:57;;;;;;;;;;;;;;;19.51;36.23;100724.56;5072852;28;20268;-75
2022/04/19 00:37:24;;;;;;;;;;;;;;;19.51;36.37;100718.34;5074191;28;19931;-75
2022/04/19 00:39:52;;;;;;;;;;;;;;;19.52;36.34;100725.41;5075061;28;19927;-75
2022/04/19 00:42:19;;;;;;;;;;;;;;;19.51;36.16;100727.25;5077166;28;19920;-75
2022/04/19 00:44:47;;;;;;;;;;;;;;;19.51;36.28;100723.72;5077604;28;19920;-75
2022/04/19 00:47:15;;;;;;;;;;;;;;;19.50;36.16;100725.56;5078253;28;19931;-75
2022/04/19 00:49:43;;;;;;;;;;;;;;;19.51;36.21;100726.41;5076630;28;20372;-75
2022/04/19 00:52:11;;;;;;;;;;;;;;;19.50;36.13;100720.19;5075530;28;19920;-75
2022/04/19 00:54:41;;;;;;;;;;;;;;;19.49;36.24;100721.16;5075247;28;19920;-75
2022/04/19 00:57:10;;;;;;;;;;;;;;;19.50;36.27;100719.34;5075127;28;19927;-75
2022/04/19 00:59:44;;;;;;;;;;;;;;;19.49;36.16;100714.97;5076231;28;19920;-75
2022/04/19 01:02:11;;;;;;;;;;;;;;;19.49;36.14;100715.81;5076033;28;19920;-75
2022/04/19 01:04:39;;;;;;;;;;;;;;;19.49;36.13;100717.66;5075615;28;19928;-75
2022/04/19 01:07:09;;;;;;;;;;;;;;;19.48;36.32;100719.44;5074816;28;19927;-75
2022/04/19 01:09:38;;;;;;;;;;;;;;;19.48;36.12;100715.91;5075519;28;19920;-75
2022/04/19 01:14:51;;;;;;;;;;;;;;;19.47;36.25;100708.84;5075556;28;19927;-75
2022/04/19 01:17:19;;;;;;;;;;;;;;;19.48;36.24;100713.22;5075646;28;19928;-75
2022/04/19 01:19:48;;;;;;;;;;;;;;;19.47;36.19;100711.53;5076566;28;19920;-75
2022/04/19 01:22:20;;;;;;;;;;;;;;;19.46;36.21;100713.38;5060079;28;19920;-75
2022/04/19 01:24:49;;;;;;;;;;;;;;;19.46;36.25;100715.22;5075146;28;20395;-75
2022/04/19 01:27:18;;;;;;;;;;;;;;;19.45;36.11;100711.69;5074586;28;19920;-75
2022/04/19 01:29:46;;;;;;;;;;;;;;;19.45;36.18;100717.06;5074280;28;19939;-74
2022/04/19 01:32:14;;;;;;;;;;;;;;;19.44;36.37;100709.97;5076705;28;19935;-75
2022/04/19 01:34:41;;;;;;;;;;;;;;;19.44;36.41;100704.59;5074939;28;20375;-74
2022/04/19 01:37:17;;;;;;;;;;;;;;;19.45;36.42;100713.53;5074468;28;20402;-74
2022/04/19 01:42:35;;;;;;;;;;;;;;;19.43;36.23;100705.59;5074600;28;19928;-74
2022/04/19 01:45:03;;;;;;;;;;;;;;;19.43;36.39;100700.22;5075145;28;19921;-74
2022/04/19 01:47:31;;;;;;;;;;;;;;;19.43;36.19;100702.91;5074844;28;19921;-74
2022/04/19 01:49:59;;;;;;;;;;;;;;;19.44;36.29;100706.44;5073473;28;19927;-74
2022/04/19 01:52:28;;;;;;;;;;;;;;;19.43;36.28;100702.06;5073472;28;19920;-74
2022/04/19 01:54:58;;;;;;;;;;;;;;;19.42;36.37;100695.84;5074594;28;19928;-74
2022/04/19 01:57:31;;;;;;;;;;;;;;;19.43;36.21;100699.38;5075209;28;19920;-74
2022/04/19 01:59:58;;;;;;;;;;;;;;;19.42;36.38;100700.38;5076243;28;19927;-74
2022/04/19 02:02:43;;;;;;;;;;;;;;;19.41;36.30;100688.78;5079962;28;20286;-74
2022/04/19 02:05:13;;;;;;;;;;;;;;;19.41;36.49;100696.84;5073688;28;19970;-75
2022/04/19 02:07:42;;;;;;;;;;;;;;;19.41;36.32;100691.47;5073180;28;19927;-74
2022/04/19 02:10:11;;;;;;;;;;;;;;;19.41;36.59;100687.94;5073181;28;19921;-74
2022/04/19 02:12:39;;;;;;;;;;;;;;;19.40;36.38;100696.97;5074410;28;19943;-75
2022/04/19 02:15:35;;;;;;;;;;;;;;;19.40;36.51;100688.91;5074468;28;19924;-75
2022/04/19 02:18:11;;;;;;;;;;;;;;;19.41;36.59;100693.31;5073770;28;19928;-75
2022/04/19 02:20:38;;;;;;;;;;;;;;;19.40;36.50;100694.28;5073973;28;19921;-75
2022/04/19 02:23:07;;;;;;;;;;;;;;;19.39;36.44;100688.06;5074106;28;19920;-75
2022/04/19 02:25:34;;;;;;;;;;;;;;;19.40;36.35;100688.91;5075002;28;19920;-75
2022/04/19 02:28:06;;;;;;;;;;;;;;;19.39;36.44;100695.25;5074292;28;19924;-74
2022/04/19 02:30:36;;;;;;;;;;;;;;;19.40;36.45;100694.28;5075596;28;19924;-75
2022/04/19 02:33:09;;;;;;;;;;;;;;;19.38;36.44;100693.56;5074673;28;19927;-74
2022/04/19 02:35:38;;;;;;;;;;;;;;;19.37;36.36;100691.88;5073389;28;19921;-75
2022/04/19 02:38:06;;;;;;;;;;;;;;;19.37;36.44;100687.34;5074246;28;19924;-75
2022/04/19 02:40:46;;;;;;;;;;;;;;;19.36;36.45;100693.69;5072473;28;19924;-75
2022/04/19 02:43:14;;;;;;;;;;;;;;;19.37;36.38;100686.50;5073335;28;19920;-75
2022/04/19 02:45:43;;;;;;;;;;;;;;;19.36;36.59;100677.59;5073491;28;19924;-75
2022/04/19 02:48:12;;;;;;;;;;;;;;;19.36;36.45;100685.63;5074202;28;19927;-75
2022/04/19 02:50:45;;;;;;;;;;;;;;;19.36;36.50;100688.31;5073724;28;19927;-75
2022/04/19 02:53:12;;;;;;;;;;;;;;;19.36;36.49;100690.16;5075501;28;19920;-75
2022/04/19 02:55:41;;;;;;;;;;;;;;;19.36;36.57;100687.47;5074425;28;20391;-75
2022/04/19 02:58:08;;;;;;;;;;;;;;;19.36;36.54;100687.47;5073147;28;19920;-75
2022/04/19 03:00:37;;;;;;;;;;;;;;;19.36;36.48;100687.47;5073442;28;20348;-75
2022/04/19 03:03:08;;;;;;;;;;;;;;;19.35;36.50;100688.47;5073276;28;20356;-75
2022/04/19 03:05:39;;;;;;;;;;;;;;;19.35;36.68;100680.41;5074364;28;19931;-74
2022/04/19 03:08:08;;;;;;;;;;;;;;;19.34;36.51;100679.56;5072768;28;20015;-75
2022/04/19 03:10:36;;;;;;;;;;;;;;;19.34;36.57;100681.41;5072697;28;20303;-74
2022/04/19 03:13:03;;;;;;;;;;;;;;;19.34;36.51;100681.41;5073240;28;19924;-76
2022/04/19 03:15:36;;;;;;;;;;;;;;;19.34;36.55;100678.72;5073950;28;19921;-74
2022/04/19 03:18:03;;;;;;;;;;;;;;;19.34;36.49;100686.78;5072994;28;19921;-74
2022/04/19 03:20:33;;;;;;;;;;;;;;;19.33;36.65;100680.56;5072237;28;19920;-74
2022/04/19 03:28:50;;;;;;;;;;;;;;;19.32;37.03;100676.16;5073991;28;20287;-74
2022/04/19 03:31:17;;;;;;;;;;;;;;;19.31;37.00;100671.78;5072676;28;20376;-74
2022/04/19 03:33:49;;;;;;;;;;;;;;;19.33;37.21;100668.97;5073225;28;19924;-74
2022/04/19 03:36:19;;;;;;;;;;;;;;;19.33;37.07;100674.34;5074252;28;20378;-75
2022/04/19 03:38:48;;;;;;;;;;;;;;;19.32;37.08;100668.09;5072340;28;19921;-74
2022/04/19 03:41:16;;;;;;;;;;;;;;;19.32;36.99;100672.63;5072360;28;19925;-74
2022/04/19 03:43:49;;;;;;;;;;;;;;;19.32;37.24;100678.00;5074792;28;19921;-74
2022/04/19 03:46:16;;;;;;;;;;;;;;;19.31;37.10;100665.56;5072990;28;19924;-75
2022/04/19 03:48:44;;;;;;;;;;;;;;;19.32;37.23;100672.63;5072200;28;20260;-75
2022/04/19 03:51:12;;;;;;;;;;;;;;;19.32;37.19;100672.63;5072472;28;19920;-75
2022/04/19 03:53:39;;;;;;;;;;;;;;;19.32;37.31;100669.94;5073134;28;19921;-75
2022/04/19 03:56:12;;;;;;;;;;;;;;;19.30;37.13;100666.56;5072607;28;19927;-75
2022/04/19 03:58:40;;;;;;;;;;;;;;;19.31;37.25;100665.56;5074664;28;19920;-74
2022/04/19 04:01:08;;;;;;;;;;;;;;;19.31;37.19;100670.94;5071898;28;19927;-75
2022/04/19 04:03:35;;;;;;;;;;;;;;;19.30;37.19;100662.03;5071441;28;19931;-75
2022/04/19 04:06:03;;;;;;;;;;;;;;;19.31;37.20;100666.41;5072257;28;19928;-75
2022/04/19 04:08:31;;;;;;;;;;;;;;;19.30;37.40;100656.66;5072816;28;19920;-75
2022/04/19 04:11:00;;;;;;;;;;;;;;;19.29;37.15;100654.97;5071647;28;19927;-75
2022/04/19 04:13:32;;;;;;;;;;;;;;;19.30;37.33;100650.44;5071802;28;20295;-74
2022/04/19 04:15:59;;;;;;;;;;;;;;;19.30;37.31;100658.50;5076859;28;19920;-75
2022/04/19 04:18:28;;;;;;;;;;;;;;;19.29;37.21;100649.59;5076236;28;20276;-74
2022/04/19 04:20:56;;;;;;;;;;;;;;;19.29;37.27;100652.28;5077979;28;19931;-74
2022/04/19 04:23:23;;;;;;;;;;;;;;;19.29;37.23;100646.06;5075968;28;19928;-75
2022/04/19 04:25:50;;;;;;;;;;;;;;;19.29;37.18;100651.44;5076396;28;19920;-75
2022/04/19 04:28:18;;;;;;;;;;;;;;;19.27;37.23;100649.72;5076443;28;19920;-74
2022/04/19 04:30:48;;;;;;;;;;;;;;;19.27;37.26;100644.34;5076813;28;19928;-74
2022/04/19 04:33:15;;;;;;;;;;;;;;;19.28;37.21;100655.94;5075798;28;19928;-74
2022/04/19 04:35:43;;;;;;;;;;;;;;;19.26;37.35;100645.34;5075394;28;20268;-75
2022/04/19 04:38:10;;;;;;;;;;;;;;;19.26;37.40;100648.03;5077087;28;19927;-74
2022/04/19 04:40:39;;;;;;;;;;;;;;;19.27;37.21;100646.19;5077273;28;19921;-75
2022/04/19 04:43:10;;;;;;;;;;;;;;;19.26;37.19;100647.19;5078890;28;19920;-74
2022/04/19 04:45:38;;;;;;;;;;;;;;;19.27;37.19;100648.88;5078068;28;19920;-74
2022/04/19 04:50:55;;;;;;;;;;;;;;;19.25;37.19;100649.03;5076565;28;20360;-74
2022/04/19 04:53:22;;;;;;;;;;;;;;;19.24;37.45;100650.03;5075333;28;20367;-74
2022/04/19 04:56:12;;;;;;;;;;;;;;;19.25;37.15;100648.19;5077332;28;20287;-74
2022/04/19 04:58:40;;;;;;;;;;;;;;;19.24;37.18;100650.03;5075748;28;19920;-74
2022/04/19 05:01:07;;;;;;;;;;;;;;;19.25;37.38;100658.91;5074800;28;19920;-74
2022/04/19 05:03:37;;;;;;;;;;;;;;;19.24;37.27;100650.03;5074903;28;20360;-74
2022/04/19 05:06:05;;;;;;;;;;;;;;;19.24;37.29;100649.13;5074967;28;19928;-75
2022/04/19 05:08:32;;;;;;;;;;;;;;;19.24;37.20;100652.72;5074707;28;20269;-74
2022/04/19 05:10:59;;;;;;;;;;;;;;;19.23;37.33;100650.97;5075617;28;19931;-74
2022/04/19 05:13:28;;;;;;;;;;;;;;;19.23;37.35;100648.28;5075275;28;19921;-73
2022/04/19 05:15:58;;;;;;;;;;;;;;;19.23;37.21;100653.66;5075195;28;19921;-74
2022/04/19 05:18:30;;;;;;;;;;;;;;;19.23;37.26;100652.81;5059324;28;19920;-74
2022/04/19 05:20:57;;;;;;;;;;;;;;;19.22;37.36;100654.66;5076924;28;19920;-74
2022/04/19 05:23:24;;;;;;;;;;;;;;;19.23;37.07;100658.19;5074289;28;19920;-75
2022/04/19 05:25:52;;;;;;;;;;;;;;;19.22;37.28;100665.41;5074390;28;19921;-74
2022/04/19 05:28:21;;;;;;;;;;;;;;;19.22;37.29;100660.03;5058516;28;19920;-75
2022/04/19 05:30:52;;;;;;;;;;;;;;;19.22;37.46;100651.13;5074151;28;19927;-74
2022/04/19 05:33:20;;;;;;;;;;;;;;;19.21;37.22;100655.66;5057878;28;19928;-74
2022/04/19 05:35:47;;;;;;;;;;;;;;;19.21;37.20;100661.03;5075416;28;19931;-74
2022/04/19 05:38:14;;;;;;;;;;;;;;;19.21;37.46;100652.13;5075316;28;19927;-74
2022/04/19 05:40:42;;;;;;;;;;;;;;;19.20;37.34;100645.91;5074553;28;19927;-74
2022/04/19 05:43:10;;;;;;;;;;;;;;;19.22;37.28;100651.13;5074902;28;19928;-73
2022/04/19 05:45:39;;;;;;;;;;;;;;;19.20;37.27;100653.09;5074255;28;19920;-74
2022/04/19 05:48:07;;;;;;;;;;;;;;;19.21;37.32;100657.50;5073694;28;19928;-73
2022/04/19 05:50:35;;;;;;;;;;;;;;;19.21;37.43;100658.34;5073786;28;19927;-74
2022/04/19 05:53:04;;;;;;;;;;;;;;;19.20;37.48;100659.31;5074411;28;19920;-73
2022/04/19 05:55:33;;;;;;;;;;;;;;;19.19;37.36;100662.97;5074038;28;19927;-73
2022/04/19 05:58:00;;;;;;;;;;;;;;;19.20;37.33;100662.00;5074714;28;20260;-73
2022/04/19 06:00:28;;;;;;;;;;;;;;;19.20;37.35;100658.44;5074149;28;19927;-73
2022/04/19 06:05:45;;;;;;;;;;;;;;;19.19;37.50;100656.75;5073490;28;19924;-74
2022/04/19 06:08:14;;;;;;;;;;;;;;;19.19;37.50;100652.25;5073881;28;19927;-74
2022/04/19 06:10:42;;;;;;;;;;;;;;;19.19;37.69;100654.06;5073822;28;19920;-74
2022/04/19 06:13:09;;;;;;;;;;;;;;;19.19;37.46;100656.75;5074121;28;19936;-74
2022/04/19 06:15:37;;;;;;;;;;;;;;;19.18;37.54;100647.88;5074071;28;19924;-74
2022/04/19 06:18:06;;;;;;;;;;;;;;;19.18;37.65;100653.22;5075791;28;19921;-74
2022/04/19 06:20:43;;;;;;;;;;;;;;;19.19;37.70;100657.59;5074429;28;19920;-74
2022/04/19 06:23:11;;;;;;;;;;;;;;;19.19;37.86;100652.25;5072978;28;19920;-74
2022/04/19 06:25:39;;;;;;;;;;;;;;;19.19;37.62;100662.13;5073233;28;20292;-74
2022/04/19 06:28:06;;;;;;;;;;;;;;;19.19;37.69;100657.59;5073334;28;19927;-74
2022/04/19 06:30:56;;;;;;;;;;;;;;;19.20;38.01;100655.75;5075666;28;20026;-74
2022/04/19 06:33:24;;;;;;;;;;;;;;;19.21;38.18;100646.75;5072653;28;19921;-76
2022/04/19 06:35:51;;;;;;;;;;;;;;;19.21;38.19;100652.97;5072975;28;19932;-73
2022/04/19 06:38:18;;;;;;;;;;;;;;;19.22;38.29;100651.97;5074044;28;19924;-74
2022/04/19 06:40:46;;;;;;;;;;;;;;;19.05;35.83;100657.13;5073169;28;20403;-75
2022/04/19 06:43:13;;;;;;;;;;;;;;;18.86;35.83;100648.00;5072944;28;19927;-74
2022/04/19 06:46:10;;;;;;;;;;;;;;;18.85;35.74;100657.03;5073102;28;19920;-74
2022/04/19 06:48:38;;;;;;;;;;;;;;;18.78;35.14;100656.69;5072667;28;19931;-75
2022/04/19 06:51:06;;;;;;;;;;;;;;;18.74;34.96;100657.94;5090768;28;19920;-75
2022/04/19 06:53:54;;;;;;;;;;;;;;;18.64;34.78;100654.34;5082196;28;19935;-75
2022/04/19 06:56:39;;;;;;;;;;;;;;;18.61;34.98;100662.63;5092391;28;19924;-75
2022/04/19 06:59:08;;;;;;;;;;;;;;;18.59;34.47;100653.00;5093283;28;19920;-75
2022/04/19 07:01:42;;;;;;;;;;;;;;;18.50;34.36;100660.03;5092852;28;19934;-75
2022/04/19 07:04:29;;;;;;;;;;;;;;;18.47;34.37;100649.56;5101691;28;20302;-75
2022/04/19 07:06:58;;;;;;;;;;;;;;;18.49;34.74;100648.44;5075918;28;19928;-74
2022/04/19 07:09:26;;;;;;;;;;;;;;;18.52;34.57;100655.38;5092459;28;19942;-74
2022/04/19 07:11:56;;;;;;;;;;;;;;;18.53;34.62;100649.03;5093230;28;20390;-75
2022/04/19 07:18:34;;;;;;;;;;;;;;;18.62;34.51;100648.25;5092051;28;19919;-74
2022/04/19 07:26:38;;;;;;;;;;;;;;;18.71;34.22;100635.91;5093237;28;20409;-74
2022/04/19 07:29:10;;;;;;;;;;;;;;;18.74;34.13;100644.53;5092747;28;19920;-74
2022/04/19 07:31:40;;;;;;;;;;;;;;;18.76;33.90;100639.06;5092568;28;19920;-74
2022/04/19 07:34:16;;;;;;;;;;;;;;;18.80;34.10;100636.94;5092665;28;19920;-74
2022/04/19 07:36:43;;;;;;;;;;;;;;;18.83;34.12;100636.69;5092149;28;19927;-74
2022/04/19 07:39:12;;;;;;;;;;;;;;;18.86;33.62;100631.06;5075681;28;19931;-74
2022/04/19 07:41:46;;;;;;;;;;;;;;;18.86;33.73;100633.75;5092284;28;19920;-74
2022/04/19 07:44:15;;;;;;;;;;;;;;;18.88;33.74;100637.13;5092181;28;19924;-74
2022/04/19 07:46:44;;;;;;;;;;;;;;;18.90;33.69;100635.16;5092314;28;19927;-74
2022/04/19 07:49:12;;;;;;;;;;;;;;;18.89;33.67;100636.16;5097722;28;19920;-76
2022/04/19 07:51:40;;;;;;;;;;;;;;;18.89;33.61;100633.47;5095331;28;19920;-75
2022/04/19 07:54:07;;;;;;;;;;;;;;;18.90;33.33;100624.44;5095964;28;19920;-76
2022/04/19 07:56:34;;;;;;;;;;;;;;;18.91;33.62;100620.78;5095793;28;19924;-75
2022/04/19 07:59:03;;;;;;;;;;;;;;;18.89;33.58;100623.59;5097356;28;19975;-76
2022/04/19 08:01:33;;;;;;;;;;;;;;;18.88;33.85;100631.75;5097661;28;20283;-76
2022/04/19 08:04:01;;;;;;;;;;;;;;;18.88;34.21;100621.03;5097492;28;19944;-75
2022/04/19 08:06:28;;;;;;;;;;;;;;;18.89;34.93;100614.69;5098151;28;19920;-75
2022/04/19 08:08:55;;;;;;;;;;;;;;;18.89;34.96;100620.91;5092735;28;19920;-76
2022/04/19 08:11:22;;;;;;;;;;;;;;;18.91;34.71;100623.44;5095820;28;19927;-75
2022/04/19 08:13:51;;;;;;;;;;;;;;;18.91;35.57;100615.41;5095856;28;19920;-75
2022/04/19 08:16:19;;;;;;;;;;;;;;;18.91;35.39;100610.88;5094295;28;20387;-75
2022/04/19 08:18:47;;;;;;;;;;;;;;;18.93;35.55;100618.81;5075509;28;19931;-76
2022/04/19 08:21:15;;;;;;;;;;;;;;;18.95;36.00;100611.47;5075584;28;19920;-75
2022/04/19 08:23:43;;;;;;;;;;;;;;;18.97;35.62;100607.69;5075292;28;19920;-75
2022/04/19 08:26:16;;;;;;;;;;;;;;;18.98;35.68;100608.53;5075594;28;20398;-75
2022/04/19 08:28:44;;;;;;;;;;;;;;;19.01;36.53;100608.25;5075056;28;20376;-75
2022/04/19 08:31:12;;;;;;;;;;;;;;;19.02;36.28;100604.59;5076784;28;20264;-76
2022/04/19 08:33:40;;;;;;;;;;;;;;;19.00;34.71;100602.06;5075211;28;19920;-75
2022/04/19 08:36:09;;;;;;;;;;;;;;;18.97;35.07;100599.63;5092100;28;19924;-75
2022/04/19 08:38:36;;;;;;;;;;;;;;;18.97;35.19;100599.63;5076658;28;19920;-75
2022/04/19 08:41:04;;;;;;;;;;;;;;;19.00;35.33;100596.69;5075178;28;19921;-76
2022/04/19 08:43:34;;;;;;;;;;;;;;;19.03;35.82;100603.59;5075212;28;19920;-75
2022/04/19 08:46:01;;;;;;;;;;;;;;;19.07;35.99;100598.81;5076295;28;20379;-75
2022/04/19 08:48:30;;;;;;;;;;;;;;;19.07;36.03;100588.91;5076477;28;19925;-75
2022/04/19 08:51:01;;;;;;;;;;;;;;;19.08;36.57;100589.75;5076109;28;19927;-75
2022/04/19 08:59:06;;;;;;;;;;;;;;;19.11;35.85;100586.81;5076399;28;20390;-75
2022/04/19 09:01:38;;;;;;;;;;;;;;;19.10;35.14;100582.44;5075016;28;19921;-75
2022/04/19 09:04:06;;;;;;;;;;;;;;;19.09;35.09;100578.06;5075703;28;19921;-75
2022/04/19 09:06:54;;;;;;;;;;;;;;;19.09;35.25;100581.59;5074576;28;19927;-75
2022/04/19 09:09:23;;;;;;;;;;;;;;;19.11;35.62;100579.63;5075551;28;19927;-75
2022/04/19 09:11:51;;;;;;;;;;;;;;;19.12;35.61;100577.78;5076312;28;19920;-77
2022/04/19 09:14:18;;;;;;;;;;;;;;;19.14;36.04;100576.66;5076127;28;19931;-76
2022/04/19 09:16:46;;;;;;;;;;;;;;;19.15;35.70;100580.19;5075792;28;19936;-75
2022/04/19 09:19:32;;;;;;;;;;;;;;;19.16;35.70;100579.19;5074945;28;19921;-75
2022/04/19 09:21:59;;;;;;;;;;;;;;;19.16;35.92;100579.19;5076121;28;19924;-75
2022/04/19 09:24:27;;;;;;;;;;;;;;;19.16;35.49;100574.72;5075572;28;20389;-75
2022/04/19 09:26:54;;;;;;;;;;;;;;;19.16;35.59;100568.47;5075491;28;19927;-75
2022/04/19 09:29:23;;;;;;;;;;;;;;;19.17;35.86;100567.50;5075750;28;19920;-75
2022/04/19 09:31:55;;;;;;;;;;;;;;;19.17;36.09;100568.34;5076515;28;19978;-75
2022/04/19 09:34:28;;;;;;;;;;;;;;;19.19;35.96;100558.31;5074319;28;19927;-75
2022/04/19 09:37:08;;;;;;;;;;;;;;;19.19;35.62;100555.63;5076547;28;19928;-75
2022/04/19 09:39:37;;;;;;;;;;;;;;;19.19;34.93;100550.25;5076746;28;19943;-75
2022/04/19 09:42:08;;;;;;;;;;;;;;;19.20;35.48;100541.25;5077078;28;20256;-75
2022/04/19 09:44:39;;;;;;;;;;;;;;;19.20;35.53;100551.09;5075703;28;19927;-75
2022/04/19 09:47:07;;;;;;;;;;;;;;;19.19;34.90;100547.56;5075620;28;20414;-75
2022/04/19 09:49:41;;;;;;;;;;;;;;;19.19;34.85;100547.56;5075442;28;19920;-75
2022/04/19 09:52:08;;;;;;;;;;;;;;;19.20;34.94;100543.94;5075017;28;20299;-75
2022/04/19 09:54:35;;;;;;;;;;;;;;;19.20;35.00;100543.06;5074833;28;19921;-75
2022/04/19 09:57:11;;;;;;;;;;;;;;;19.21;35.35;100544.78;5075474;28;19929;-75
2022/04/19 09:59:43;;;;;;;;;;;;;;;19.21;35.86;100537.56;5075588;28;19920;-75
2022/04/19 10:10:38;;;;;;;;;;;;;;;19.21;34.70;100516.09;5069862;28;19928;-75
2022/04/19 10:13:05;;;;;;;;;;;;;;;19.20;34.20;100503.69;5090042;28;20407;-75
2022/04/19 10:15:32;;;;;;;;;;;;;;;19.20;34.78;100506.38;5074619;28;19920;-75
2022/04/19 10:18:00;;;;;;;;;;;;;;;19.20;34.18;100509.03;5074553;28;19943;-75
2022/04/19 10:20:31;;;;;;;;;;;;;;;19.22;34.28;100508.91;5073234;28;19920;-75
2022/04/19 10:23:06;;;;;;;;;;;;;;;19.21;33.65;100504.53;5072907;28;19927;-76
2022/04/19 10:25:40;;;;;;;;;;;;;;;19.21;33.91;100501.84;5074229;28;20000;-76
2022/04/19 10:28:08;;;;;;;;;;;;;;;19.21;33.78;100507.19;5074800;28;19920;-75
2022/04/19 10:30:39;;;;;;;;;;;;;;;19.21;35.02;100500.00;5074111;28;19927;-75
2022/04/19 10:33:25;;;;;;;;;;;;;;;19.22;34.42;100503.53;5074231;28;19928;-75
2022/04/19 10:36:08;;;;;;;;;;;;;;;19.21;34.03;100499.16;5072737;28;19920;-77
2022/04/19 10:38:35;;;;;;;;;;;;;;;19.21;34.13;100500.00;5073893;28;20268;-76
2022/04/19 10:41:04;;;;;;;;;;;;;;;19.23;34.41;100491.78;5073909;28;19920;-76
2022/04/19 10:43:31;;;;;;;;;;;;;;;19.23;34.82;100487.28;5074497;28;19920;-76
2022/04/19 10:46:17;;;;;;;;;;;;;;;19.25;34.93;100492.53;5074627;28;19920;-75
2022/04/19 10:49:03;;;;;;;;;;;;;;;19.25;35.00;100489.84;5089393;28;19924;-76
2022/04/19 10:51:30;;;;;;;;;;;;;;;19.25;35.02;100479.94;5072386;28;19924;-76
2022/04/19 10:53:58;;;;;;;;;;;;;;;19.27;35.06;100469.06;5072452;28;20403;-76
2022/04/19 10:56:25;;;;;;;;;;;;;;;19.27;35.20;100472.59;5073818;28;19928;-76
2022/04/19 10:58:52;;;;;;;;;;;;;;;19.27;35.33;100475.28;5073645;28;19928;-75
2022/04/19 11:01:32;;;;;;;;;;;;;;;19.28;35.33;100462.69;5074130;28;19927;-75
2022/04/19 11:04:00;;;;;;;;;;;;;;;19.29;35.27;100458.19;5072043;28;20367;-75
2022/04/19 11:06:32;;;;;;;;;;;;;;;19.29;35.37;100448.31;5073682;28;19921;-76
2022/04/19 11:09:06;;;;;;;;;;;;;;;19.29;35.38;100448.31;5073513;28;20376;-75
2022/04/19 11:11:44;;;;;;;;;;;;;;;19.30;35.54;100449.16;5072164;28;19920;-75
2022/04/19 11:14:18;;;;;;;;;;;;;;;19.31;35.44;100448.16;5073395;28;20359;-75
2022/04/19 11:16:48;;;;;;;;;;;;;;;19.32;35.54;100441.78;5072109;28;20359;-75
2022/04/19 11:19:20;;;;;;;;;;;;;;;19.32;35.48;100439.94;5073544;28;19920;-75
2022/04/19 11:21:51;;;;;;;;;;;;;;;19.32;35.66;100449.84;5073817;28;19926;-75
2022/04/19 11:24:37;;;;;;;;;;;;;;;19.32;35.97;100439.13;5071249;28;19943;-75
2022/04/19 11:27:04;;;;;;;;;;;;;;;19.32;35.86;100431.91;5073268;28;19920;-75
2022/04/19 11:29:47;;;;;;;;;;;;;;;19.33;36.04;100425.56;5072351;28;19928;-75
2022/04/19 11:32:22;;;;;;;;;;;;;;;19.34;35.83;100423.72;5073096;28;20291;-76
2022/04/19 11:34:58;;;;;;;;;;;;;;;19.34;35.99;100415.69;5072955;28;19927;-76
2022/04/19 11:37:26;;;;;;;;;;;;;;;19.36;36.22;100411.00;5072683;28;19927;-75
2022/04/19 11:48:27;;;;;;;;;;;;;;;19.37;36.26;100396.59;5073331;28;19920;-74
2022/04/19 11:51:04;;;;;;;;;;;;;;;19.37;36.11;100397.44;5072823;28;19920;-74
2022/04/19 11:53:31;;;;;;;;;;;;;;;19.37;36.25;100401.97;5073942;28;20291;-75
2022/04/19 11:55:59;;;;;;;;;;;;;;;19.37;36.29;100401.97;5073349;28;19921;-75
2022/04/19 11:58:26;;;;;;;;;;;;;;;19.39;36.36;100399.97;5072747;28;19920;-75
2022/04/19 12:01:03;;;;;;;;;;;;;;;19.37;36.53;100393.94;5073973;28;19924;-74
2022/04/19 12:03:39;;;;;;;;;;;;;;;19.39;36.56;100394.63;5073039;28;19927;-76
2022/04/19 12:06:08;;;;;;;;;;;;;;;19.38;36.76;100395.59;5073742;28;19920;-76
2022/04/19 12:08:40;;;;;;;;;;;;;;;19.37;36.80;100389.41;5073014;28;19920;-76
2022/04/19 12:11:09;;;;;;;;;;;;;;;19.37;36.77;100383.19;5072404;28;19927;-77
2022/04/19 12:14:14;;;;;;;;;;;;;;;19.39;36.76;100381.19;5073083;28;19920;-77
2022/04/19 12:16:41;;;;;;;;;;;;;;;19.39;36.79;100381.19;5089012;28;20315;-77
2022/04/19 12:23:20;;;;;;;;;;;;;;;19.39;36.64;100370.44;5120312;28;19911;-76
2022/04/19 12:26:17;;;;;;;;;;;;;;;19.39;36.74;100368.63;5112341;28;19927;-76
2022/04/19 12:52:47;;;;;;;;;;;;;;;19.41;36.70;100321.00;5117020;28;19911;-76
2022/04/19 12:59:12;;;;;;;;;;;;;;;19.41;36.83;100314.81;5116833;28;19911;-77
2022/04/19 13:30:35;;;;;;;;;;;;;;;19.44;36.60;100266.16;5116129;28;20355;-77
2022/04/19 13:56:04;;;;;;;;;;;;;;;19.44;36.99;100218.69;5115647;28;19923;-76
2022/04/19 13:59:07;;;;;;;;;;;;;;;19.45;36.88;100216.88;5099042;28;20263;-76
2022/04/19 14:02:12;;;;;;;;;;;;;;;19.44;36.95;100215.16;5094721;28;20315;-76
2022/04/19 14:08:20;;;;;;;;;;;;;;;19.46;36.93;100208.66;5095817;28;19920;-76
2022/04/19 15:11:55;;;;;;;;;;;;;;;19.48;37.36;100160.19;5094692;28;19912;-77
2022/04/19 15:18:05;;;;;;;;;;;;;;;19.47;37.37;100153.13;5094741;28;19921;-76
2022/04/19 15:56:58;;;;;;;;;;;;;;;19.48;37.44;100138.72;5094321;28;19916;-77
2022/04/19 16:03:06;;;;;;;;;;;;;;;19.48;37.48;100133.34;5093452;28;19916;-76
2022/04/19 16:05:33;;;;;;;;;;;;;;;19.48;37.77;100136.03;5086318;28;19920;-76
2022/04/19 16:08:00;;;;;;;;;;;;;;;19.48;37.75;100130.66;5093251;28;19920;-76
2022/04/19 16:10:28;;;;;;;;;;;;;;;19.49;37.89;100133.22;5095338;28;20375;-76
2022/04/19 16:12:58;;;;;;;;;;;;;;;19.50;37.96;100126.00;5097425;28;19927;-77
2022/04/19 16:15:25;;;;;;;;;;;;;;;19.49;38.11;100127.84;5097544;28;20398;-77
2022/04/19 16:23:24;;;;;;;;;;;;;;;19.50;38.01;100118.78;5097482;28;19920;-77
2022/04/19 16:25:55;;;;;;;;;;;;;;;19.52;38.11;100118.63;5097179;28;19966;-76
2022/04/19 16:28:24;;;;;;;;;;;;;;;19.50;37.93;100118.78;5096934;28;19924;-76
2022/04/19 16:30:53;;;;;;;;;;;;;;;19.51;37.86;100125.00;5097051;28;20267;-78
2022/04/19 16:33:20;;;;;;;;;;;;;;;19.50;38.09;100126.84;5096840;28;19921;-77
2022/04/19 16:35:48;;;;;;;;;;;;;;;19.51;38.43;100119.63;5089762;28;19920;-77
2022/04/19 16:38:15;;;;;;;;;;;;;;;19.52;38.80;100118.63;5094006;28;19920;-76
2022/04/19 16:40:43;;;;;;;;;;;;;;;19.52;38.73;100115.94;5095669;28;20363;-77
2022/04/19 16:43:12;;;;;;;;;;;;;;;19.53;39.06;100128.38;5075020;28;19920;-77
2022/04/19 16:45:39;;;;;;;;;;;;;;;19.54;39.06;100124.72;5075352;28;19934;-76
2022/04/19 16:48:07;;;;;;;;;;;;;;;19.54;38.96;100123.88;5076189;28;20367;-77
2022/04/19 16:50:34;;;;;;;;;;;;;;;19.53;38.94;100123.03;5076342;28;19920;-77
2022/04/19 16:53:02;;;;;;;;;;;;;;;19.53;38.77;100117.66;5075844;28;19927;-77
2022/04/19 16:55:30;;;;;;;;;;;;;;;19.53;38.93;100131.06;5076626;28;19920;-77
2022/04/19 16:58:00;;;;;;;;;;;;;;;19.53;39.29;100123.03;5076549;28;19928;-77